Reading, Kansas
Current Conditions -  °F | °C
As of 5:53 AM on Monday 24 Nov 2014 (Local Time) from KEMP Reporting Station
Scattered Clouds Scattered Clouds  
Wind Chill: 25°   Ceiling: Unl
Heat Index: 33°   Visibility: 10mi
Dew Point: 26°   Wind: 9mph
Humidity: 75%   Direction: 290°WNW
Pressure: 29.69"   Gusts: NA
Location:  38.52°N, 95.96°W
Report Text: KEMP 241153Z AUTO 29008KT 10SM SCT090 01/M03 A2969 RMK AO2 SLP063 70017 T00061033 10039 20000 51009
Loading
Personal Weather Stations






























Interactive Weather Map New forecast layout! Learn more

10-Day Weather Forecast

Advertisements
Track Severe Weather on mobile